createdAt,value
2023-05-11T00:06:01.909Z,11.70
2023-05-11T00:16:06.000Z,12.30
2023-05-11T00:26:10.530Z,13.40
2023-05-11T00:36:14.063Z,14.20
2023-05-11T00:46:18.350Z,17.50
2023-05-11T00:56:22.508Z,17.50
2023-05-11T01:06:31.891Z,17.30
2023-05-11T01:27:00.091Z,16.90
2023-05-11T01:37:10.415Z,12.30
2023-05-11T01:47:16.128Z,14.40
2023-05-11T01:57:20.738Z,10.90
2023-05-11T02:07:26.442Z,13.80
2023-05-11T02:17:35.488Z,14.50
2023-05-11T02:27:38.664Z,9.30
2023-05-11T02:37:46.633Z,13.20
2023-05-11T02:47:49.944Z,14.10
2023-05-11T02:57:55.569Z,12.90
2023-05-11T03:08:01.719Z,14.00
2023-05-11T03:18:06.296Z,12.60
2023-05-11T03:28:11.819Z,10.80
2023-05-11T03:38:17.486Z,10.70
2023-05-11T03:48:22.459Z,9.20
2023-05-11T03:58:26.538Z,18.80
2023-05-11T04:08:30.202Z,11.00
2023-05-11T04:18:34.182Z,14.50
2023-05-11T04:28:37.945Z,12.70
2023-05-11T04:38:41.709Z,14.30
2023-05-11T04:48:45.743Z,16.80
2023-05-11T04:58:49.851Z,17.50
2023-05-11T05:08:57.287Z,13.70
2023-05-11T05:19:01.237Z,14.40
2023-05-11T05:29:04.434Z,16.80
2023-05-11T05:39:12.525Z,18.50
2023-05-11T05:49:16.973Z,19.20
2023-05-11T05:59:20.767Z,16.80
2023-05-11T06:09:24.832Z,26.40
2023-05-11T06:19:28.595Z,18.80
2023-05-11T06:29:33.381Z,12.90
2023-05-11T06:39:37.730Z,20.80
2023-05-11T06:49:42.263Z,14.00
2023-05-11T06:59:50.656Z,8.40
2023-05-11T07:09:54.781Z,10.90
2023-05-11T07:20:03.144Z,15.10
2023-05-11T07:40:12.316Z,9.00
2023-05-11T07:50:17.201Z,14.80
2023-05-11T08:00:25.588Z,8.20
2023-05-11T08:10:29.451Z,15.80
2023-05-11T08:20:33.522Z,5.80
2023-05-11T08:30:39.245Z,10.70
2023-05-11T08:40:47.470Z,6.90
2023-05-11T09:00:55.756Z,8.50
2023-05-11T09:11:00.492Z,8.20
2023-05-11T09:21:03.519Z,10.90
2023-05-11T09:31:07.391Z,7.10
2023-05-11T09:41:11.088Z,5.00
2023-05-11T09:51:14.559Z,10.90
2023-05-11T10:01:17.159Z,9.70
2023-05-11T10:11:22.354Z,9.60
2023-05-11T10:21:28.659Z,3.40
2023-05-11T10:31:33.402Z,5.90
2023-05-11T10:41:48.494Z,8.80
2023-05-11T10:52:06.419Z,3.20
2023-05-11T11:02:10.418Z,3.00
2023-05-11T11:12:14.428Z,4.00
2023-05-11T11:22:46.449Z,5.10
2023-05-11T11:32:51.901Z,2.80
2023-05-11T11:43:09.622Z,4.10
2023-05-11T11:53:13.152Z,2.90
2023-05-11T12:03:22.897Z,4.30
2023-05-11T12:13:26.970Z,2.70
2023-05-11T12:23:32.349Z,2.90
2023-05-11T12:33:45.141Z,4.20
2023-05-11T12:43:49.162Z,3.50
2023-05-11T12:53:53.301Z,3.40
2023-05-11T13:03:57.074Z,6.20
2023-05-11T13:14:16.564Z,5.50
2023-05-11T13:24:44.405Z,6.70
2023-05-11T13:44:50.794Z,2.30
2023-05-11T13:54:54.510Z,3.30
2023-05-11T14:05:01.395Z,3.50
2023-05-11T14:15:06.852Z,4.10
2023-05-11T14:35:14.757Z,5.90
2023-05-11T14:45:42.500Z,7.30
2023-05-11T14:55:46.252Z,2.50
2023-05-11T15:05:53.422Z,5.60
2023-05-11T15:15:57.619Z,3.10
2023-05-11T15:26:01.734Z,4.20
2023-05-11T15:36:05.846Z,5.20
2023-05-11T15:46:09.585Z,5.10
2023-05-11T15:56:13.333Z,4.60
2023-05-11T16:06:17.163Z,3.80
2023-05-11T16:16:20.665Z,6.30
2023-05-11T16:26:28.977Z,8.20
2023-05-11T16:36:33.695Z,3.90
2023-05-11T16:46:37.822Z,3.00
2023-05-11T16:56:42.359Z,4.60
2023-05-11T17:06:49.497Z,4.90
2023-05-11T17:16:53.479Z,3.80
2023-05-11T17:26:57.129Z,8.30
2023-05-11T17:37:00.653Z,6.60
2023-05-11T17:47:03.687Z,7.60
2023-05-11T17:57:11.038Z,6.50
2023-05-11T18:07:14.638Z,5.30
2023-05-11T18:17:18.033Z,8.10
2023-05-11T18:27:21.840Z,5.50
2023-05-11T18:37:25.410Z,10.60
2023-05-11T18:47:29.316Z,9.80
2023-05-11T18:57:34.037Z,8.20
2023-05-11T19:07:38.713Z,6.40
2023-05-11T19:17:42.383Z,8.60
2023-05-11T19:27:46.310Z,6.80
2023-05-11T19:37:50.703Z,8.50
2023-05-11T19:47:54.420Z,9.90
2023-05-11T19:57:58.402Z,8.70
2023-05-11T20:08:02.780Z,8.20
2023-05-11T20:18:07.376Z,8.30
2023-05-11T20:28:11.851Z,8.00
2023-05-11T20:38:16.220Z,6.50
2023-05-11T20:48:28.875Z,8.30
2023-05-11T20:58:40.370Z,9.30
2023-05-11T21:08:44.135Z,10.80
2023-05-11T21:18:47.952Z,11.20
2023-05-11T21:28:50.932Z,11.90
2023-05-11T21:38:54.666Z,12.80
2023-05-11T21:48:58.527Z,9.20
2023-05-11T21:59:02.115Z,11.50
2023-05-11T22:09:06.506Z,11.90
2023-05-11T22:19:10.537Z,13.40
2023-05-11T22:29:14.604Z,15.50
2023-05-11T22:39:18.667Z,15.30
2023-05-11T22:49:47.276Z,10.80
2023-05-11T22:59:55.106Z,13.30
2023-05-11T23:09:59.980Z,12.90
2023-05-11T23:20:03.773Z,12.20
2023-05-11T23:30:09.592Z,16.20
2023-05-11T23:40:13.433Z,12.80
2023-05-11T23:50:16.122Z,14.70
